sensor_id;sensor_type;location;lat;lon;timestamp;temperature;humidity
20957;DHT22;10637;47.970;7.830;2023-08-12T00:02:49;22.00;99.90
20957;DHT22;10637;47.970;7.830;2023-08-12T00:07:51;22.00;99.90
20957;DHT22;10637;47.970;7.830;2023-08-12T00:12:53;22.10;99.90
20957;DHT22;10637;47.970;7.830;2023-08-12T00:17:55;21.90;99.90
20957;DHT22;10637;47.970;7.830;2023-08-12T00:22:56;21.80;99.90
20957;DHT22;10637;47.970;7.830;2023-08-12T00:27:58;21.80;99.90
20957;DHT22;10637;47.970;7.830;2023-08-12T00:33:00;21.80;99.90
20957;DHT22;10637;47.970;7.830;2023-08-12T00:38:02;21.80;99.90
20957;DHT22;10637;47.970;7.830;2023-08-12T00:43:04;21.90;99.90
20957;DHT22;10637;47.970;7.830;2023-08-12T00:48:08;21.80;99.90
20957;DHT22;10637;47.970;7.830;2023-08-12T00:53:13;21.80;99.90
20957;DHT22;10637;47.970;7.830;2023-08-12T00:58:16;21.70;99.90
20957;DHT22;10637;47.970;7.830;2023-08-12T01:03:18;21.90;99.90
20957;DHT22;10637;47.970;7.830;2023-08-12T01:08:21;22.40;99.90
20957;DHT22;10637;47.970;7.830;2023-08-12T01:13:41;22.40;99.90
20957;DHT22;10637;47.970;7.830;2023-08-12T01:18:48;22.10;99.90
20957;DHT22;10637;47.970;7.830;2023-08-12T01:23:51;21.90;99.90
20957;DHT22;10637;47.970;7.830;2023-08-12T01:28:53;22.00;99.90
20957;DHT22;10637;47.970;7.830;2023-08-12T01:34:02;22.10;99.90
20957;DHT22;10637;47.970;7.830;2023-08-12T01:39:06;22.20;99.90
20957;DHT22;10637;47.970;7.830;2023-08-12T01:44:10;22.00;99.90
20957;DHT22;10637;47.970;7.830;2023-08-12T01:49:12;22.00;99.90
20957;DHT22;10637;47.970;7.830;2023-08-12T01:54:13;22.00;99.90
20957;DHT22;10637;47.970;7.830;2023-08-12T01:59:15;22.00;99.90
20957;DHT22;10637;47.970;7.830;2023-08-12T02:04:17;22.20;99.90
20957;DHT22;10637;47.970;7.830;2023-08-12T02:09:19;22.10;99.90
20957;DHT22;10637;47.970;7.830;2023-08-12T02:14:21;22.00;99.90
20957;DHT22;10637;47.970;7.830;2023-08-12T02:19:22;22.30;99.90
20957;DHT22;10637;47.970;7.830;2023-08-12T02:24:24;22.30;99.90
20957;DHT22;10637;47.970;7.830;2023-08-12T02:29:26;22.20;99.90
20957;DHT22;10637;47.970;7.830;2023-08-12T02:34:28;22.10;99.90
20957;DHT22;10637;47.970;7.830;2023-08-12T02:39:30;21.90;99.90
20957;DHT22;10637;47.970;7.830;2023-08-12T02:44:31;22.00;99.90
20957;DHT22;10637;47.970;7.830;2023-08-12T02:49:33;21.80;99.90
20957;DHT22;10637;47.970;7.830;2023-08-12T02:54:35;21.90;99.90
20957;DHT22;10637;47.970;7.830;2023-08-12T02:59:37;22.00;99.90
20957;DHT22;10637;47.970;7.830;2023-08-12T03:04:38;22.00;99.90
20957;DHT22;10637;47.970;7.830;2023-08-12T03:09:40;22.00;99.90
20957;DHT22;10637;47.970;7.830;2023-08-12T03:14:42;22.00;99.90
20957;DHT22;10637;47.970;7.830;2023-08-12T03:19:43;21.90;99.90
20957;DHT22;10637;47.970;7.830;2023-08-12T03:24:45;22.00;99.90
20957;DHT22;10637;47.970;7.830;2023-08-12T03:29:47;21.60;99.90
20957;DHT22;10637;47.970;7.830;2023-08-12T03:34:49;21.60;99.90
20957;DHT22;10637;47.970;7.830;2023-08-12T03:39:51;21.80;99.90
20957;DHT22;10637;47.970;7.830;2023-08-12T03:44:53;21.80;99.90
20957;DHT22;10637;47.970;7.830;2023-08-12T03:49:54;21.70;99.90
20957;DHT22;10637;47.970;7.830;2023-08-12T03:54:56;21.90;99.90
20957;DHT22;10637;47.970;7.830;2023-08-12T03:59:58;21.50;99.90
20957;DHT22;10637;47.970;7.830;2023-08-12T04:05:00;21.40;99.90
20957;DHT22;10637;47.970;7.830;2023-08-12T04:10:02;21.50;99.90
20957;DHT22;10637;47.970;7.830;2023-08-12T04:15:04;21.50;99.90
20957;DHT22;10637;47.970;7.830;2023-08-12T04:20:07;21.40;99.90
20957;DHT22;10637;47.970;7.830;2023-08-12T04:25:09;21.50;99.90
20957;DHT22;10637;47.970;7.830;2023-08-12T04:30:11;21.50;99.90
20957;DHT22;10637;47.970;7.830;2023-08-12T04:35:13;21.60;99.90
20957;DHT22;10637;47.970;7.830;2023-08-12T04:40:15;21.70;99.90
20957;DHT22;10637;47.970;7.830;2023-08-12T04:45:17;21.70;99.90
20957;DHT22;10637;47.970;7.830;2023-08-12T04:50:19;21.70;99.90
20957;DHT22;10637;47.970;7.830;2023-08-12T04:55:21;21.40;99.90
20957;DHT22;10637;47.970;7.830;2023-08-12T05:00:23;21.70;99.90
20957;DHT22;10637;47.970;7.830;2023-08-12T05:05:26;21.60;99.90
20957;DHT22;10637;47.970;7.830;2023-08-12T05:10:28;21.70;99.90
20957;DHT22;10637;47.970;7.830;2023-08-12T05:15:30;21.90;99.90
20957;DHT22;10637;47.970;7.830;2023-08-12T05:20:32;22.00;99.90
20957;DHT22;10637;47.970;7.830;2023-08-12T05:25:34;21.90;99.90
20957;DHT22;10637;47.970;7.830;2023-08-12T05:30:36;22.10;99.90
20957;DHT22;10637;47.970;7.830;2023-08-12T05:35:38;22.00;99.90
20957;DHT22;10637;47.970;7.830;2023-08-12T05:40:40;21.90;99.90
20957;DHT22;10637;47.970;7.830;2023-08-12T05:45:42;22.40;99.90
20957;DHT22;10637;47.970;7.830;2023-08-12T05:50:44;22.20;99.90
20957;DHT22;10637;47.970;7.830;2023-08-12T05:55:45;22.40;99.90
20957;DHT22;10637;47.970;7.830;2023-08-12T06:00:47;22.30;99.90
20957;DHT22;10637;47.970;7.830;2023-08-12T06:05:49;22.40;99.90
20957;DHT22;10637;47.970;7.830;2023-08-12T06:10:51;22.60;99.90
20957;DHT22;10637;47.970;7.830;2023-08-12T06:15:53;22.70;99.90
20957;DHT22;10637;47.970;7.830;2023-08-12T06:20:54;22.80;99.90
20957;DHT22;10637;47.970;7.830;2023-08-12T06:25:56;22.70;99.90
20957;DHT22;10637;47.970;7.830;2023-08-12T06:30:58;22.80;99.90
20957;DHT22;10637;47.970;7.830;2023-08-12T06:36:00;23.00;99.90
20957;DHT22;10637;47.970;7.830;2023-08-12T06:41:02;23.30;99.90
20957;DHT22;10637;47.970;7.830;2023-08-12T06:46:03;23.70;99.90
20957;DHT22;10637;47.970;7.830;2023-08-12T06:51:05;24.30;99.90
20957;DHT22;10637;47.970;7.830;2023-08-12T06:56:12;24.70;99.90
20957;DHT22;10637;47.970;7.830;2023-08-12T07:01:13;24.80;99.90
20957;DHT22;10637;47.970;7.830;2023-08-12T07:06:18;24.90;99.90
20957;DHT22;10637;47.970;7.830;2023-08-12T07:11:20;25.50;99.90
20957;DHT22;10637;47.970;7.830;2023-08-12T07:16:21;26.10;99.90
20957;DHT22;10637;47.970;7.830;2023-08-12T07:21:23;26.30;99.90
20957;DHT22;10637;47.970;7.830;2023-08-12T07:26:25;26.80;99.90
20957;DHT22;10637;47.970;7.830;2023-08-12T07:31:27;27.20;99.90
20957;DHT22;10637;47.970;7.830;2023-08-12T07:36:29;27.40;99.90
20957;DHT22;10637;47.970;7.830;2023-08-12T07:41:31;27.40;99.90
20957;DHT22;10637;47.970;7.830;2023-08-12T07:46:32;27.50;99.90
20957;DHT22;10637;47.970;7.830;2023-08-12T07:51:34;27.30;99.90
20957;DHT22;10637;47.970;7.830;2023-08-12T07:56:36;27.10;99.90
20957;DHT22;10637;47.970;7.830;2023-08-12T08:01:38;26.90;99.90
20957;DHT22;10637;47.970;7.830;2023-08-12T08:06:40;26.40;99.90
20957;DHT22;10637;47.970;7.830;2023-08-12T08:11:41;26.10;99.90
20957;DHT22;10637;47.970;7.830;2023-08-12T08:16:43;24.90;99.90
20957;DHT22;10637;47.970;7.830;2023-08-12T08:21:45;23.50;99.90
20957;DHT22;10637;47.970;7.830;2023-08-12T08:26:47;23.10;99.90
20957;DHT22;10637;47.970;7.830;2023-08-12T08:31:49;23.30;99.90
20957;DHT22;10637;47.970;7.830;2023-08-12T08:36:50;23.40;99.90
20957;DHT22;10637;47.970;7.830;2023-08-12T08:41:54;23.50;99.90
20957;DHT22;10637;47.970;7.830;2023-08-12T08:46:58;23.70;99.90
20957;DHT22;10637;47.970;7.830;2023-08-12T08:52:01;23.90;99.90
20957;DHT22;10637;47.970;7.830;2023-08-12T08:57:03;24.50;99.90
20957;DHT22;10637;47.970;7.830;2023-08-12T09:02:21;25.20;99.90
20957;DHT22;10637;47.970;7.830;2023-08-12T09:07:23;25.70;99.90
20957;DHT22;10637;47.970;7.830;2023-08-12T09:12:25;26.30;99.90
20957;DHT22;10637;47.970;7.830;2023-08-12T09:17:27;26.40;99.90
20957;DHT22;10637;47.970;7.830;2023-08-12T09:22:29;26.30;99.90
20957;DHT22;10637;47.970;7.830;2023-08-12T09:27:31;25.50;99.90
20957;DHT22;10637;47.970;7.830;2023-08-12T09:32:33;25.50;99.90
20957;DHT22;10637;47.970;7.830;2023-08-12T09:37:41;25.20;99.90
20957;DHT22;10637;47.970;7.830;2023-08-12T09:42:46;25.50;99.90
20957;DHT22;10637;47.970;7.830;2023-08-12T09:47:49;26.30;99.90
20957;DHT22;10637;47.970;7.830;2023-08-12T09:52:52;27.10;99.90
20957;DHT22;10637;47.970;7.830;2023-08-12T09:57:54;27.40;99.90
20957;DHT22;10637;47.970;7.830;2023-08-12T10:02:59;27.40;99.90
20957;DHT22;10637;47.970;7.830;2023-08-12T10:08:03;27.20;99.90
20957;DHT22;10637;47.970;7.830;2023-08-12T10:13:05;27.30;99.90
20957;DHT22;10637;47.970;7.830;2023-08-12T10:18:10;28.20;99.90
20957;DHT22;10637;47.970;7.830;2023-08-12T10:23:16;28.40;99.90
20957;DHT22;10637;47.970;7.830;2023-08-12T10:28:19;28.20;99.90
20957;DHT22;10637;47.970;7.830;2023-08-12T10:33:21;28.20;99.90
20957;DHT22;10637;47.970;7.830;2023-08-12T10:38:25;29.10;99.90
20957;DHT22;10637;47.970;7.830;2023-08-12T10:44:09;29.70;99.90
20957;DHT22;10637;47.970;7.830;2023-08-12T10:49:10;29.90;99.90
20957;DHT22;10637;47.970;7.830;2023-08-12T10:54:24;29.40;99.90
20957;DHT22;10637;47.970;7.830;2023-08-12T10:59:48;29.60;99.90
20957;DHT22;10637;47.970;7.830;2023-08-12T11:10:00;29.10;99.90
20957;DHT22;10637;47.970;7.830;2023-08-12T11:15:05;28.20;99.90
20957;DHT22;10637;47.970;7.830;2023-08-12T11:20:09;26.10;99.90
20957;DHT22;10637;47.970;7.830;2023-08-12T11:25:12;26.00;99.90
20957;DHT22;10637;47.970;7.830;2023-08-12T11:30:19;24.20;99.90
20957;DHT22;10637;47.970;7.830;2023-08-12T11:35:23;23.60;99.90
20957;DHT22;10637;47.970;7.830;2023-08-12T11:40:27;24.00;99.90
20957;DHT22;10637;47.970;7.830;2023-08-12T11:45:29;24.10;99.90
20957;DHT22;10637;47.970;7.830;2023-08-12T11:50:31;24.40;99.90
20957;DHT22;10637;47.970;7.830;2023-08-12T11:55:33;24.90;99.90
20957;DHT22;10637;47.970;7.830;2023-08-12T12:00:35;25.60;99.90
20957;DHT22;10637;47.970;7.830;2023-08-12T12:05:36;26.30;99.90
20957;DHT22;10637;47.970;7.830;2023-08-12T12:10:38;27.00;99.90
20957;DHT22;10637;47.970;7.830;2023-08-12T12:15:43;28.00;99.90
20957;DHT22;10637;47.970;7.830;2023-08-12T12:20:57;28.80;99.90
20957;DHT22;10637;47.970;7.830;2023-08-12T12:26:01;29.80;99.90
20957;DHT22;10637;47.970;7.830;2023-08-12T12:31:04;30.90;99.90
20957;DHT22;10637;47.970;7.830;2023-08-12T12:36:05;30.70;99.90
20957;DHT22;10637;47.970;7.830;2023-08-12T12:41:07;30.50;99.90
20957;DHT22;10637;47.970;7.830;2023-08-12T12:46:09;30.90;99.90
20957;DHT22;10637;47.970;7.830;2023-08-12T12:51:12;31.60;99.90
20957;DHT22;10637;47.970;7.830;2023-08-12T12:56:14;32.20;99.90
20957;DHT22;10637;47.970;7.830;2023-08-12T13:01:16;32.70;99.90
20957;DHT22;10637;47.970;7.830;2023-08-12T13:06:18;32.80;99.90
20957;DHT22;10637;47.970;7.830;2023-08-12T13:11:19;32.20;99.90
20957;DHT22;10637;47.970;7.830;2023-08-12T13:16:21;31.60;99.90
20957;DHT22;10637;47.970;7.830;2023-08-12T13:21:23;31.10;99.90
20957;DHT22;10637;47.970;7.830;2023-08-12T13:26:25;30.80;99.90
20957;DHT22;10637;47.970;7.830;2023-08-12T13:31:27;31.10;99.90
20957;DHT22;10637;47.970;7.830;2023-08-12T13:36:29;31.40;99.90
20957;DHT22;10637;47.970;7.830;2023-08-12T13:41:32;31.20;99.90
20957;DHT22;10637;47.970;7.830;2023-08-12T13:46:33;30.70;99.90
20957;DHT22;10637;47.970;7.830;2023-08-12T13:51:35;29.90;99.90
20957;DHT22;10637;47.970;7.830;2023-08-12T13:56:37;29.20;99.90
20957;DHT22;10637;47.970;7.830;2023-08-12T14:01:39;29.10;99.90
20957;DHT22;10637;47.970;7.830;2023-08-12T14:06:44;29.00;99.90
20957;DHT22;10637;47.970;7.830;2023-08-12T14:11:46;28.70;99.90
20957;DHT22;10637;47.970;7.830;2023-08-12T14:16:48;28.50;99.90
20957;DHT22;10637;47.970;7.830;2023-08-12T14:21:50;28.30;99.90
20957;DHT22;10637;47.970;7.830;2023-08-12T14:26:52;28.40;99.90
20957;DHT22;10637;47.970;7.830;2023-08-12T14:31:53;28.50;99.90
20957;DHT22;10637;47.970;7.830;2023-08-12T14:36:55;28.70;99.90
20957;DHT22;10637;47.970;7.830;2023-08-12T14:41:57;28.60;99.90
20957;DHT22;10637;47.970;7.830;2023-08-12T14:46:59;29.20;99.90
20957;DHT22;10637;47.970;7.830;2023-08-12T14:52:01;29.10;99.90
20957;DHT22;10637;47.970;7.830;2023-08-12T14:57:03;28.80;99.90
20957;DHT22;10637;47.970;7.830;2023-08-12T15:02:05;28.80;99.90
20957;DHT22;10637;47.970;7.830;2023-08-12T15:07:07;29.00;99.90
20957;DHT22;10637;47.970;7.830;2023-08-12T15:12:09;29.20;99.90
20957;DHT22;10637;47.970;7.830;2023-08-12T15:17:10;29.30;99.90
20957;DHT22;10637;47.970;7.830;2023-08-12T15:22:13;29.00;99.90
20957;DHT22;10637;47.970;7.830;2023-08-12T15:27:14;28.80;99.90
20957;DHT22;10637;47.970;7.830;2023-08-12T15:32:17;28.70;99.90
20957;DHT22;10637;47.970;7.830;2023-08-12T15:37:18;28.50;99.90
20957;DHT22;10637;47.970;7.830;2023-08-12T15:42:20;28.40;99.90
20957;DHT22;10637;47.970;7.830;2023-08-12T15:47:22;28.20;99.90
20957;DHT22;10637;47.970;7.830;2023-08-12T15:52:24;28.20;99.90
20957;DHT22;10637;47.970;7.830;2023-08-12T15:57:26;28.20;99.90
20957;DHT22;10637;47.970;7.830;2023-08-12T16:02:27;28.30;99.90
20957;DHT22;10637;47.970;7.830;2023-08-12T16:07:30;28.30;99.90
20957;DHT22;10637;47.970;7.830;2023-08-12T16:12:31;28.20;99.90
20957;DHT22;10637;47.970;7.830;2023-08-12T16:17:33;28.10;99.90
20957;DHT22;10637;47.970;7.830;2023-08-12T16:22:35;28.10;99.90
20957;DHT22;10637;47.970;7.830;2023-08-12T16:27:37;28.10;99.90
20957;DHT22;10637;47.970;7.830;2023-08-12T16:32:38;28.00;99.90
20957;DHT22;10637;47.970;7.830;2023-08-12T16:37:40;28.00;99.90
20957;DHT22;10637;47.970;7.830;2023-08-12T16:42:42;28.00;99.90
20957;DHT22;10637;47.970;7.830;2023-08-12T16:47:44;28.10;99.90
20957;DHT22;10637;47.970;7.830;2023-08-12T16:52:46;28.10;99.90
20957;DHT22;10637;47.970;7.830;2023-08-12T16:57:47;28.10;99.90
20957;DHT22;10637;47.970;7.830;2023-08-12T17:02:49;27.90;99.90
20957;DHT22;10637;47.970;7.830;2023-08-12T17:07:51;27.90;99.90
20957;DHT22;10637;47.970;7.830;2023-08-12T17:12:55;27.80;99.90
20957;DHT22;10637;47.970;7.830;2023-08-12T17:17:57;27.60;99.90
20957;DHT22;10637;47.970;7.830;2023-08-12T17:22:58;27.40;99.90
20957;DHT22;10637;47.970;7.830;2023-08-12T17:28:00;27.20;99.90
20957;DHT22;10637;47.970;7.830;2023-08-12T17:33:02;26.70;99.90
20957;DHT22;10637;47.970;7.830;2023-08-12T17:38:04;26.40;99.90
20957;DHT22;10637;47.970;7.830;2023-08-12T17:43:06;26.20;99.90
20957;DHT22;10637;47.970;7.830;2023-08-12T17:48:07;25.40;99.90
20957;DHT22;10637;47.970;7.830;2023-08-12T17:53:09;24.70;99.90
20957;DHT22;10637;47.970;7.830;2023-08-12T17:58:11;24.60;99.90
20957;DHT22;10637;47.970;7.830;2023-08-12T18:03:13;24.60;99.90
20957;DHT22;10637;47.970;7.830;2023-08-12T18:08:15;24.80;99.90
20957;DHT22;10637;47.970;7.830;2023-08-12T18:13:18;24.80;99.90
20957;DHT22;10637;47.970;7.830;2023-08-12T18:18:19;25.00;99.90
20957;DHT22;10637;47.970;7.830;2023-08-12T18:23:21;25.00;99.90
20957;DHT22;10637;47.970;7.830;2023-08-12T18:28:23;25.00;99.90
20957;DHT22;10637;47.970;7.830;2023-08-12T18:33:25;24.90;99.90
20957;DHT22;10637;47.970;7.830;2023-08-12T18:38:27;24.80;99.90
20957;DHT22;10637;47.970;7.830;2023-08-12T18:43:28;24.70;99.90
20957;DHT22;10637;47.970;7.830;2023-08-12T18:48:30;24.30;99.90
20957;DHT22;10637;47.970;7.830;2023-08-12T18:53:32;24.30;99.90
20957;DHT22;10637;47.970;7.830;2023-08-12T18:58:34;24.10;99.90
20957;DHT22;10637;47.970;7.830;2023-08-12T19:03:36;24.20;99.90
20957;DHT22;10637;47.970;7.830;2023-08-12T19:08:38;24.20;99.90
20957;DHT22;10637;47.970;7.830;2023-08-12T19:13:40;24.00;99.90
20957;DHT22;10637;47.970;7.830;2023-08-12T19:18:42;24.10;99.90
20957;DHT22;10637;47.970;7.830;2023-08-12T19:23:43;24.10;99.90
20957;DHT22;10637;47.970;7.830;2023-08-12T19:28:46;24.00;99.90
20957;DHT22;10637;47.970;7.830;2023-08-12T19:33:48;24.10;99.90
20957;DHT22;10637;47.970;7.830;2023-08-12T19:38:49;23.90;99.90
20957;DHT22;10637;47.970;7.830;2023-08-12T19:43:51;24.00;99.90
20957;DHT22;10637;47.970;7.830;2023-08-12T19:48:54;23.60;99.90
20957;DHT22;10637;47.970;7.830;2023-08-12T19:53:56;23.40;99.90
20957;DHT22;10637;47.970;7.830;2023-08-12T19:58:58;23.30;99.90
20957;DHT22;10637;47.970;7.830;2023-08-12T20:03:59;23.30;99.90
20957;DHT22;10637;47.970;7.830;2023-08-12T20:09:01;23.30;99.90
20957;DHT22;10637;47.970;7.830;2023-08-12T20:14:03;23.30;99.90
20957;DHT22;10637;47.970;7.830;2023-08-12T20:19:05;23.30;99.90
20957;DHT22;10637;47.970;7.830;2023-08-12T20:24:07;23.20;99.90
20957;DHT22;10637;47.970;7.830;2023-08-12T20:29:09;23.20;99.90
20957;DHT22;10637;47.970;7.830;2023-08-12T20:34:11;23.20;99.90
20957;DHT22;10637;47.970;7.830;2023-08-12T20:39:13;23.10;99.90
20957;DHT22;10637;47.970;7.830;2023-08-12T20:44:15;23.10;99.90
20957;DHT22;10637;47.970;7.830;2023-08-12T20:49:16;23.10;99.90
20957;DHT22;10637;47.970;7.830;2023-08-12T20:54:18;23.10;99.90
20957;DHT22;10637;47.970;7.830;2023-08-12T20:59:20;23.00;99.90
20957;DHT22;10637;47.970;7.830;2023-08-12T21:04:22;23.20;99.90
20957;DHT22;10637;47.970;7.830;2023-08-12T21:09:24;22.90;99.90
20957;DHT22;10637;47.970;7.830;2023-08-12T21:14:26;23.00;99.90
20957;DHT22;10637;47.970;7.830;2023-08-12T21:19:28;22.80;99.90
20957;DHT22;10637;47.970;7.830;2023-08-12T21:24:30;22.70;99.90
20957;DHT22;10637;47.970;7.830;2023-08-12T21:29:31;22.50;99.90
20957;DHT22;10637;47.970;7.830;2023-08-12T21:34:33;22.70;99.90
20957;DHT22;10637;47.970;7.830;2023-08-12T21:39:35;22.50;99.90
20957;DHT22;10637;47.970;7.830;2023-08-12T21:44:37;22.50;99.90
20957;DHT22;10637;47.970;7.830;2023-08-12T21:49:39;22.50;99.90
20957;DHT22;10637;47.970;7.830;2023-08-12T21:54:42;22.60;99.90
20957;DHT22;10637;47.970;7.830;2023-08-12T21:59:44;22.50;99.90
20957;DHT22;10637;47.970;7.830;2023-08-12T22:04:49;22.50;99.90
20957;DHT22;10637;47.970;7.830;2023-08-12T22:09:51;22.40;99.90
20957;DHT22;10637;47.970;7.830;2023-08-12T22:14:53;22.30;99.90
20957;DHT22;10637;47.970;7.830;2023-08-12T22:19:55;22.30;99.90
20957;DHT22;10637;47.970;7.830;2023-08-12T22:24:57;22.00;99.90
20957;DHT22;10637;47.970;7.830;2023-08-12T22:29:58;22.10;99.90
20957;DHT22;10637;47.970;7.830;2023-08-12T22:35:00;22.00;99.90
20957;DHT22;10637;47.970;7.830;2023-08-12T22:40:02;22.10;99.90
20957;DHT22;10637;47.970;7.830;2023-08-12T22:45:05;22.10;99.90
20957;DHT22;10637;47.970;7.830;2023-08-12T22:50:09;22.00;99.90
20957;DHT22;10637;47.970;7.830;2023-08-12T22:55:13;22.00;99.90
20957;DHT22;10637;47.970;7.830;2023-08-12T23:00:15;21.90;99.90
20957;DHT22;10637;47.970;7.830;2023-08-12T23:05:17;21.90;99.90
20957;DHT22;10637;47.970;7.830;2023-08-12T23:10:19;22.10;99.90
20957;DHT22;10637;47.970;7.830;2023-08-12T23:15:20;22.00;99.90
20957;DHT22;10637;47.970;7.830;2023-08-12T23:20:22;22.00;99.90
20957;DHT22;10637;47.970;7.830;2023-08-12T23:25:24;21.80;99.90
20957;DHT22;10637;47.970;7.830;2023-08-12T23:30:26;21.80;99.90
20957;DHT22;10637;47.970;7.830;2023-08-12T23:35:27;21.80;99.90
20957;DHT22;10637;47.970;7.830;2023-08-12T23:40:29;21.80;99.90
20957;DHT22;10637;47.970;7.830;2023-08-12T23:45:31;21.60;99.90
20957;DHT22;10637;47.970;7.830;2023-08-12T23:50:33;21.60;99.90
20957;DHT22;10637;47.970;7.830;2023-08-12T23:55:35;21.50;99.90
